createdAt,value
2019-03-28T00:00:00.193Z,20.03
2019-03-28T00:02:28.241Z,25.43
2019-03-28T00:04:56.149Z,27.50
2019-03-28T00:07:24.289Z,22.63
2019-03-28T00:09:52.235Z,21.53
2019-03-28T00:12:20.031Z,21.20
2019-03-28T00:14:47.901Z,20.53
2019-03-28T00:17:15.675Z,22.33
2019-03-28T00:19:44.114Z,22.87
2019-03-28T00:22:17.312Z,24.43
2019-03-28T00:24:53.807Z,21.57
2019-03-28T00:27:21.649Z,25.50
2019-03-28T00:29:49.594Z,28.73
2019-03-28T00:32:17.438Z,20.53
2019-03-28T00:34:45.311Z,22.00
2019-03-28T00:37:13.080Z,20.93
2019-03-28T00:39:40.999Z,25.33
2019-03-28T00:42:10.830Z,24.80
2019-03-28T00:44:38.735Z,26.80
2019-03-28T00:47:06.500Z,19.90
2019-03-28T00:49:34.369Z,25.80
2019-03-28T00:52:02.253Z,21.23
2019-03-28T00:54:30.090Z,23.90
2019-03-28T00:56:57.956Z,26.50
2019-03-28T00:59:25.979Z,25.40
2019-03-28T01:01:53.871Z,24.83
2019-03-28T01:04:21.754Z,22.93
2019-03-28T01:06:49.518Z,23.50
2019-03-28T01:09:17.315Z,30.53
2019-03-28T01:11:45.106Z,23.00
2019-03-28T01:14:13.017Z,25.83
2019-03-28T01:16:40.765Z,24.10
2019-03-28T01:19:08.553Z,18.13
2019-03-28T01:21:36.295Z,27.20
2019-03-28T01:24:04.153Z,22.07
2019-03-28T01:26:31.969Z,24.53
2019-03-28T01:28:59.843Z,28.40
2019-03-28T01:31:27.723Z,22.87
2019-03-28T01:33:55.621Z,27.48
2019-03-28T01:36:23.508Z,25.17
2019-03-28T01:38:51.285Z,27.30
2019-03-28T01:41:19.076Z,27.50
2019-03-28T01:43:46.881Z,24.55
2019-03-28T01:46:14.781Z,23.40
2019-03-28T01:48:42.568Z,24.63
2019-03-28T01:51:10.437Z,28.65
2019-03-28T01:53:38.392Z,29.73
2019-03-28T01:56:06.320Z,27.55
2019-03-28T01:58:34.193Z,26.33
2019-03-28T02:01:02.985Z,28.53
2019-03-28T02:03:31.066Z,24.10
2019-03-28T02:05:58.949Z,29.55
2019-03-28T02:08:26.829Z,27.67
2019-03-28T02:10:54.705Z,25.20
2019-03-28T02:13:22.635Z,28.07
2019-03-28T02:15:50.537Z,27.32
2019-03-28T02:18:18.443Z,25.88
2019-03-28T02:20:46.543Z,27.93
2019-03-28T02:23:14.405Z,23.60
2019-03-28T02:25:42.161Z,24.50
2019-03-28T02:28:10.039Z,23.00
2019-03-28T02:30:37.916Z,25.37
2019-03-28T02:33:05.749Z,26.48
2019-03-28T02:35:33.538Z,26.42
2019-03-28T02:38:01.438Z,26.12
2019-03-28T02:40:29.459Z,30.37
2019-03-28T02:42:57.355Z,28.35
2019-03-28T02:45:25.263Z,26.93
2019-03-28T02:47:53.185Z,26.55
2019-03-28T02:50:21.047Z,27.35
2019-03-28T02:52:48.904Z,27.05
2019-03-28T02:55:16.790Z,29.95
2019-03-28T02:57:44.680Z,24.67
2019-03-28T03:00:12.895Z,27.73
2019-03-28T03:02:40.873Z,28.25
2019-03-28T03:05:09.155Z,28.87
2019-03-28T03:07:37.118Z,29.55
2019-03-28T03:10:05.335Z,28.35
2019-03-28T03:12:33.284Z,35.40
2019-03-28T03:15:01.205Z,27.42
2019-03-28T03:17:29.171Z,28.50
2019-03-28T03:19:56.911Z,27.22
2019-03-28T03:22:24.716Z,25.57
2019-03-28T03:24:52.481Z,30.90
2019-03-28T03:27:20.426Z,29.37
2019-03-28T03:29:48.351Z,30.85
2019-03-28T03:32:16.119Z,28.52
2019-03-28T03:34:43.903Z,32.10
2019-03-28T03:37:11.783Z,27.80
2019-03-28T03:39:39.830Z,28.38
2019-03-28T03:42:07.966Z,26.10
2019-03-28T03:44:35.743Z,30.03
2019-03-28T03:47:03.663Z,27.17
2019-03-28T03:49:31.555Z,31.27
2019-03-28T03:51:59.339Z,28.52
2019-03-28T03:54:27.227Z,27.45
2019-03-28T03:56:55.103Z,32.98
2019-03-28T03:59:23.020Z,27.75
2019-03-28T04:01:50.889Z,31.52
2019-03-28T04:04:18.804Z,33.65
2019-03-28T04:06:46.676Z,27.90
2019-03-28T04:09:14.427Z,29.18
2019-03-28T04:11:42.343Z,26.87
2019-03-28T04:14:10.146Z,28.70
2019-03-28T04:16:37.935Z,31.30
2019-03-28T04:19:06.124Z,29.87
2019-03-28T04:21:34.098Z,29.67
2019-03-28T04:24:02.010Z,34.92
2019-03-28T04:26:29.903Z,31.05
2019-03-28T04:28:57.646Z,30.33
2019-03-28T04:31:25.615Z,34.20
2019-03-28T04:33:53.493Z,33.13
2019-03-28T04:36:21.392Z,32.60
2019-03-28T04:38:50.617Z,32.30
2019-03-28T04:41:18.648Z,31.70
2019-03-28T04:43:46.413Z,33.95
2019-03-28T04:46:14.283Z,34.95
2019-03-28T04:48:42.138Z,33.70
2019-03-28T04:51:11.786Z,31.97
2019-03-28T04:53:39.687Z,28.92
2019-03-28T04:56:07.541Z,33.80
2019-03-28T04:58:44.261Z,33.75
2019-03-28T05:01:05.283Z,32.63
2019-03-28T05:03:33.148Z,31.80
2019-03-28T05:06:01.130Z,32.90
2019-03-28T05:08:28.988Z,29.18
2019-03-28T05:10:56.890Z,31.87
2019-03-28T05:13:24.718Z,31.90
2019-03-28T05:15:52.600Z,34.15
2019-03-28T05:18:20.520Z,33.05
2019-03-28T05:20:48.421Z,29.73
2019-03-28T05:23:16.306Z,32.85
2019-03-28T05:25:44.188Z,31.40
2019-03-28T05:28:12.130Z,29.02
2019-03-28T05:30:40.019Z,32.90
2019-03-28T05:33:07.946Z,33.53
2019-03-28T05:35:35.788Z,29.83
2019-03-28T05:38:03.696Z,33.23
2019-03-28T05:40:31.504Z,35.80
2019-03-28T05:42:59.382Z,33.27
2019-03-28T05:45:27.193Z,32.98
2019-03-28T05:47:55.104Z,31.85
2019-03-28T05:50:22.936Z,35.55
2019-03-28T05:52:50.700Z,33.05
2019-03-28T05:55:18.531Z,32.60
2019-03-28T05:57:46.420Z,38.17
2019-03-28T06:00:14.547Z,36.83
2019-03-28T06:02:42.416Z,39.33
2019-03-28T06:05:10.366Z,32.60
2019-03-28T06:07:38.292Z,33.45
2019-03-28T06:10:06.336Z,35.35
2019-03-28T06:12:34.198Z,34.47
2019-03-28T06:15:02.110Z,34.33
2019-03-28T06:17:29.991Z,35.10
2019-03-28T06:19:57.888Z,32.95
2019-03-28T06:22:26.072Z,33.57
2019-03-28T06:24:53.898Z,33.75
2019-03-28T06:27:21.646Z,35.90
2019-03-28T06:29:49.544Z,35.05
2019-03-28T06:32:17.320Z,35.70
2019-03-28T06:34:45.266Z,36.73
2019-03-28T06:37:13.022Z,33.23
2019-03-28T06:39:40.946Z,36.43
2019-03-28T06:42:08.790Z,33.60
2019-03-28T06:44:36.658Z,34.13
2019-03-28T06:47:04.586Z,33.80
2019-03-28T06:49:32.503Z,31.57
2019-03-28T06:52:00.394Z,38.23
2019-03-28T06:54:28.369Z,33.07
2019-03-28T06:56:56.343Z,33.93
2019-03-28T06:59:36.294Z,35.77
2019-03-28T07:01:53.744Z,32.93
2019-03-28T07:04:21.535Z,31.10
2019-03-28T07:06:49.378Z,35.90
2019-03-28T07:09:17.215Z,33.53
2019-03-28T07:11:44.987Z,35.33
2019-03-28T07:14:12.853Z,34.13
2019-03-28T07:16:40.727Z,33.50
2019-03-28T07:19:08.465Z,34.10
2019-03-28T07:21:36.319Z,36.40
2019-03-28T07:24:04.069Z,36.40
2019-03-28T07:26:31.948Z,36.30
2019-03-28T07:28:59.783Z,37.37
2019-03-28T07:31:27.640Z,35.00
2019-03-28T07:33:55.547Z,33.17
2019-03-28T07:36:23.397Z,37.43
2019-03-28T07:38:52.053Z,35.27
2019-03-28T07:41:19.814Z,33.73
2019-03-28T07:43:47.685Z,34.07
2019-03-28T07:46:15.467Z,38.77
2019-03-28T07:48:43.305Z,36.03
2019-03-28T07:51:11.081Z,38.90
2019-03-28T07:53:38.973Z,32.83
2019-03-28T07:56:06.857Z,38.33
2019-03-28T07:58:35.296Z,33.10
2019-03-28T08:01:03.399Z,34.93
2019-03-28T08:03:31.161Z,34.67
2019-03-28T08:05:59.049Z,37.13
2019-03-28T08:08:38.316Z,36.07
2019-03-28T08:10:56.569Z,32.23
2019-03-28T08:13:24.466Z,34.17
2019-03-28T08:15:52.375Z,30.60
2019-03-28T08:18:23.597Z,34.27
2019-03-28T08:20:50.025Z,34.53
2019-03-28T08:23:17.913Z,35.60
2019-03-28T08:25:45.981Z,31.27
2019-03-28T08:28:13.974Z,35.47
2019-03-28T08:30:45.154Z,39.07
2019-03-28T08:33:11.598Z,33.93
2019-03-28T08:35:39.497Z,34.37
2019-03-28T08:38:10.092Z,37.70
2019-03-28T08:40:39.820Z,36.43
2019-03-28T08:43:07.885Z,36.73
2019-03-28T08:45:35.801Z,37.03
2019-03-28T08:48:03.965Z,34.53
2019-03-28T08:50:31.947Z,36.70
2019-03-28T08:52:59.905Z,36.07
2019-03-28T08:55:27.833Z,36.67
2019-03-28T08:57:55.729Z,38.07
2019-03-28T09:00:33.094Z,39.27
2019-03-28T09:02:53.378Z,34.10
2019-03-28T09:05:21.309Z,34.60
2019-03-28T09:07:49.223Z,36.47
2019-03-28T09:10:17.088Z,40.03
2019-03-28T09:12:44.944Z,38.93
2019-03-28T09:15:13.288Z,36.53
2019-03-28T09:17:41.260Z,37.30
2019-03-28T09:20:09.332Z,34.50
2019-03-28T09:22:38.922Z,35.83
2019-03-28T09:25:07.102Z,36.80
2019-03-28T09:27:34.910Z,36.40
2019-03-28T09:30:02.995Z,40.07
2019-03-28T09:32:30.857Z,34.77
2019-03-28T09:34:58.736Z,37.97
2019-03-28T09:37:26.513Z,43.23
2019-03-28T09:39:54.266Z,36.13
2019-03-28T09:42:22.130Z,38.73
2019-03-28T09:44:49.889Z,40.23
2019-03-28T09:47:17.656Z,38.60
2019-03-28T09:49:45.523Z,35.83
2019-03-28T09:52:13.408Z,40.30
2019-03-28T09:54:41.262Z,43.13
2019-03-28T09:57:09.160Z,40.63
2019-03-28T09:59:37.067Z,38.77
2019-03-28T10:02:05.006Z,40.27
2019-03-28T10:04:32.961Z,48.73
2019-03-28T10:07:00.852Z,37.33
2019-03-28T10:09:28.737Z,34.00
2019-03-28T10:11:56.610Z,39.73
2019-03-28T10:14:24.359Z,43.37
2019-03-28T10:16:52.176Z,40.37
2019-03-28T10:19:20.013Z,42.53
2019-03-28T10:21:47.964Z,42.10
2019-03-28T10:24:15.820Z,36.20
2019-03-28T10:26:43.704Z,38.87
2019-03-28T10:29:11.446Z,38.27
2019-03-28T10:31:39.323Z,42.30
2019-03-28T10:34:07.203Z,45.97
2019-03-28T10:36:35.112Z,39.80
2019-03-28T10:39:04.969Z,42.07
2019-03-28T10:41:32.822Z,38.57
2019-03-28T10:44:00.699Z,40.57
2019-03-28T10:46:28.557Z,43.73
2019-03-28T10:48:56.462Z,36.50
2019-03-28T10:51:24.321Z,37.57
2019-03-28T10:53:52.081Z,33.87
2019-03-28T10:56:22.428Z,36.63
2019-03-28T10:58:50.598Z,39.40
2019-03-28T11:01:32.708Z,38.43
2019-03-28T11:03:48.305Z,34.40
2019-03-28T11:06:16.225Z,35.17
2019-03-28T11:08:44.083Z,34.53
2019-03-28T11:11:11.842Z,38.17
2019-03-28T11:13:39.689Z,33.07
2019-03-28T11:16:07.572Z,31.33
2019-03-28T11:18:35.369Z,34.67
2019-03-28T11:21:03.237Z,30.37
2019-03-28T11:23:31.172Z,31.63
2019-03-28T11:25:58.921Z,24.30
2019-03-28T11:28:26.677Z,25.33
2019-03-28T11:30:54.517Z,27.90
2019-03-28T11:33:22.465Z,28.17
2019-03-28T11:35:50.226Z,26.43
2019-03-28T11:38:17.963Z,26.47
2019-03-28T11:40:45.830Z,27.03
2019-03-28T11:43:13.585Z,33.40
2019-03-28T11:45:41.575Z,27.80
2019-03-28T11:48:09.453Z,27.37
2019-03-28T11:50:37.248Z,26.73
2019-03-28T11:53:05.001Z,24.60
2019-03-28T11:55:32.890Z,26.73
2019-03-28T11:58:00.646Z,20.90
2019-03-28T12:00:29.524Z,20.27
2019-03-28T12:02:57.570Z,20.27
2019-03-28T12:05:25.331Z,16.73
2019-03-28T12:07:53.082Z,18.40
2019-03-28T12:10:20.875Z,19.50
2019-03-28T12:12:48.746Z,19.30
2019-03-28T12:15:16.613Z,16.57
2019-03-28T12:17:44.488Z,20.00
2019-03-28T12:20:12.328Z,22.07
2019-03-28T12:22:40.337Z,24.00
2019-03-28T12:25:09.229Z,20.50
2019-03-28T12:27:37.109Z,23.37
2019-03-28T12:30:06.072Z,24.43
2019-03-28T12:32:33.923Z,25.97
2019-03-28T12:35:01.826Z,24.70
2019-03-28T12:37:29.567Z,28.40
2019-03-28T12:39:59.852Z,24.93
2019-03-28T12:42:27.165Z,24.93
2019-03-28T12:44:57.147Z,22.57
2019-03-28T12:47:24.681Z,28.07
2019-03-28T12:49:52.935Z,22.57
2019-03-28T12:52:20.683Z,23.63
2019-03-28T12:54:48.550Z,22.93
2019-03-28T12:57:16.290Z,26.83
2019-03-28T12:59:44.187Z,25.03
2019-03-28T13:02:27.111Z,28.70
2019-03-28T13:04:43.142Z,25.03
2019-03-28T13:07:10.892Z,28.03
2019-03-28T13:09:38.749Z,27.30
2019-03-28T13:12:06.620Z,27.73
2019-03-28T13:14:34.474Z,28.13
2019-03-28T13:17:02.368Z,28.70
2019-03-28T13:19:30.222Z,26.67
2019-03-28T13:21:58.126Z,29.40
2019-03-28T13:24:25.928Z,26.27
2019-03-28T13:26:53.805Z,26.50
2019-03-28T13:29:21.589Z,30.87
2019-03-28T13:31:49.437Z,29.00
2019-03-28T13:34:17.206Z,28.73
2019-03-28T13:36:45.062Z,28.10
2019-03-28T13:39:12.832Z,29.63
2019-03-28T13:41:40.681Z,28.47
2019-03-28T13:44:08.568Z,27.73
2019-03-28T13:46:36.316Z,31.27
2019-03-28T13:49:04.194Z,29.83
2019-03-28T13:51:32.056Z,31.53
2019-03-28T13:54:01.856Z,29.23
2019-03-28T13:56:29.626Z,29.47
2019-03-28T13:58:57.516Z,32.90
2019-03-28T14:01:26.321Z,28.20
2019-03-28T14:03:54.250Z,31.63
2019-03-28T14:06:22.216Z,29.73
2019-03-28T14:08:50.060Z,27.60
2019-03-28T14:11:17.940Z,29.73
2019-03-28T14:13:45.687Z,30.60
2019-03-28T14:16:13.438Z,32.53
2019-03-28T14:18:41.228Z,31.73
2019-03-28T14:21:09.119Z,31.50
2019-03-28T14:23:37.007Z,30.53
2019-03-28T14:26:04.896Z,30.83
2019-03-28T14:28:32.812Z,31.40
2019-03-28T14:31:00.993Z,34.03
2019-03-28T14:33:29.092Z,32.03
2019-03-28T14:35:56.937Z,37.67
2019-03-28T14:38:24.812Z,36.27
2019-03-28T14:40:52.672Z,35.23
2019-03-28T14:43:20.515Z,35.10
2019-03-28T14:45:48.376Z,34.20
2019-03-28T14:48:16.229Z,32.50
2019-03-28T14:50:44.316Z,35.37
2019-03-28T14:53:12.091Z,38.63
2019-03-28T14:55:39.861Z,35.13
2019-03-28T14:58:07.852Z,34.13
2019-03-28T15:00:47.335Z,35.73
2019-03-28T15:03:25.704Z,33.77
2019-03-28T15:05:45.467Z,35.37
2019-03-28T15:08:13.319Z,30.27
2019-03-28T15:10:41.872Z,28.60
2019-03-28T15:13:09.756Z,33.00
2019-03-28T15:15:37.495Z,33.17
2019-03-28T15:18:05.445Z,34.60
2019-03-28T15:20:33.212Z,32.97
2019-03-28T15:23:00.944Z,38.17
2019-03-28T15:25:28.820Z,37.47
2019-03-28T15:27:56.902Z,41.27
2019-03-28T15:30:24.720Z,46.13
2019-03-28T15:32:52.486Z,36.93
2019-03-28T15:35:20.240Z,33.23
2019-03-28T15:37:48.090Z,35.33
2019-03-28T15:40:16.308Z,30.80
2019-03-28T15:42:44.196Z,34.20
2019-03-28T15:45:12.166Z,33.97
2019-03-28T15:47:40.001Z,34.77
2019-03-28T15:50:08.356Z,32.53
2019-03-28T15:52:36.221Z,32.43
2019-03-28T15:55:04.730Z,32.40
2019-03-28T15:57:32.581Z,32.43
2019-03-28T16:00:00.530Z,33.03
2019-03-28T16:02:28.828Z,37.93
2019-03-28T16:04:56.676Z,36.37
2019-03-28T16:07:24.551Z,35.70
2019-03-28T16:09:52.372Z,37.73
2019-03-28T16:12:20.254Z,37.07
2019-03-28T16:14:48.228Z,41.90
2019-03-28T16:17:16.061Z,43.13
2019-03-28T16:19:45.256Z,41.33
2019-03-28T16:22:15.565Z,39.53
2019-03-28T16:24:42.894Z,37.63
2019-03-28T16:27:10.648Z,40.43
2019-03-28T16:29:38.522Z,38.73
2019-03-28T16:32:06.256Z,37.10
2019-03-28T16:34:34.116Z,39.23
2019-03-28T16:37:02.029Z,36.27
2019-03-28T16:39:29.848Z,36.07
2019-03-28T16:41:57.707Z,34.70
2019-03-28T16:44:25.594Z,34.47
2019-03-28T16:46:53.426Z,35.37
2019-03-28T16:49:21.308Z,31.77
2019-03-28T16:51:49.072Z,29.87
2019-03-28T16:54:16.966Z,30.67
2019-03-28T16:56:44.733Z,32.27
2019-03-28T16:59:12.640Z,33.03
2019-03-28T17:01:40.393Z,38.03
2019-03-28T17:04:20.052Z,34.87
2019-03-28T17:06:38.217Z,30.57
2019-03-28T17:09:06.539Z,29.30
2019-03-28T17:11:34.405Z,32.43
2019-03-28T17:14:02.269Z,31.67
2019-03-28T17:16:30.006Z,31.30
2019-03-28T17:18:57.813Z,32.67
2019-03-28T17:21:25.577Z,30.07
2019-03-28T17:23:53.903Z,35.90
2019-03-28T17:26:21.928Z,30.33
2019-03-28T17:28:49.840Z,34.47
2019-03-28T17:31:18.876Z,39.37
2019-03-28T17:33:46.957Z,38.87
2019-03-28T17:36:14.720Z,34.33
2019-03-28T17:38:42.592Z,36.37
2019-03-28T17:41:10.477Z,33.00
2019-03-28T17:43:38.338Z,32.83
2019-03-28T17:46:06.211Z,37.10
2019-03-28T17:48:34.098Z,31.93
2019-03-28T17:51:01.878Z,29.80
2019-03-28T17:53:29.779Z,34.07
2019-03-28T17:55:58.731Z,36.03
2019-03-28T17:58:26.498Z,33.37
2019-03-28T18:00:54.338Z,35.27
2019-03-28T18:03:31.087Z,36.67
2019-03-28T18:05:57.890Z,40.73
2019-03-28T18:08:21.544Z,36.67
2019-03-28T18:10:49.290Z,31.90
2019-03-28T18:13:17.195Z,35.00
2019-03-28T18:15:45.053Z,32.57
2019-03-28T18:18:12.780Z,31.27
2019-03-28T18:20:40.623Z,28.27
2019-03-28T18:23:08.491Z,30.23
2019-03-28T18:25:36.389Z,33.47
2019-03-28T18:28:04.230Z,31.23
2019-03-28T18:30:32.009Z,32.23
2019-03-28T18:32:59.863Z,30.90
2019-03-28T18:35:27.642Z,30.97
2019-03-28T18:37:55.500Z,27.73
2019-03-28T18:40:23.278Z,29.20
2019-03-28T18:42:51.022Z,31.77
2019-03-28T18:45:18.882Z,30.90
2019-03-28T18:47:46.670Z,30.03
2019-03-28T18:50:14.936Z,31.70
2019-03-28T18:52:42.830Z,29.20
2019-03-28T18:55:10.795Z,27.63
2019-03-28T18:57:39.120Z,32.67
2019-03-28T19:00:07.877Z,31.80
2019-03-28T19:02:35.744Z,33.93
2019-03-28T19:05:04.171Z,33.87
2019-03-28T19:07:32.068Z,29.60
2019-03-28T19:09:59.923Z,35.40
2019-03-28T19:12:27.720Z,30.63
2019-03-28T19:14:55.565Z,39.00
2019-03-28T19:17:23.361Z,30.60
2019-03-28T19:19:51.108Z,33.80
2019-03-28T19:22:18.866Z,36.93
2019-03-28T19:24:46.760Z,31.83
2019-03-28T19:27:14.576Z,34.00
2019-03-28T19:29:42.476Z,36.60
2019-03-28T19:32:10.383Z,38.10
2019-03-28T19:34:38.256Z,37.77
2019-03-28T19:37:06.296Z,36.80
2019-03-28T19:39:34.373Z,34.10
2019-03-28T19:42:04.410Z,34.67
2019-03-28T19:44:32.082Z,35.80
2019-03-28T19:47:00.068Z,34.17
2019-03-28T19:49:27.919Z,34.07
2019-03-28T19:51:55.805Z,33.87
2019-03-28T19:54:23.726Z,37.20
2019-03-28T19:56:51.611Z,36.33
2019-03-28T19:59:19.542Z,34.60
2019-03-28T20:01:47.555Z,34.17
2019-03-28T20:04:15.506Z,34.47
2019-03-28T20:06:43.361Z,35.03
2019-03-28T20:09:16.543Z,35.50
2019-03-28T20:11:41.029Z,34.50
2019-03-28T20:14:08.955Z,34.93
2019-03-28T20:16:36.871Z,41.13
2019-03-28T20:19:04.809Z,38.07
2019-03-28T20:21:32.700Z,36.73
2019-03-28T20:24:00.566Z,37.07
2019-03-28T20:26:28.330Z,36.60
2019-03-28T20:28:56.234Z,36.23
2019-03-28T20:31:24.117Z,35.23
2019-03-28T20:33:52.014Z,38.77
2019-03-28T20:36:36.909Z,38.33
2019-03-28T20:39:02.972Z,37.13
2019-03-28T20:41:19.457Z,34.30
2019-03-28T20:43:47.393Z,40.60
2019-03-28T20:46:15.320Z,41.37
2019-03-28T20:48:43.264Z,36.23
2019-03-28T20:51:11.253Z,37.50
2019-03-28T20:53:39.184Z,38.53
2019-03-28T20:56:07.149Z,35.63
2019-03-28T20:58:35.083Z,37.93
2019-03-28T21:01:03.111Z,39.17
2019-03-28T21:03:31.012Z,35.90
2019-03-28T21:05:59.094Z,35.37
2019-03-28T21:08:27.274Z,35.43
2019-03-28T21:10:55.099Z,36.93
2019-03-28T21:13:23.038Z,35.13
2019-03-28T21:15:50.992Z,39.57
2019-03-28T21:18:18.981Z,35.70
2019-03-28T21:20:46.908Z,38.70
2019-03-28T21:23:14.836Z,39.70
2019-03-28T21:25:42.824Z,37.07
2019-03-28T21:28:13.698Z,39.50
2019-03-28T21:30:47.100Z,35.37
2019-03-28T21:33:10.474Z,38.07
2019-03-28T21:35:39.102Z,40.00
2019-03-28T21:38:07.361Z,39.80
2019-03-28T21:40:35.721Z,37.67
2019-03-28T21:43:04.763Z,38.60
2019-03-28T21:45:32.720Z,35.43
2019-03-28T21:48:00.648Z,40.37
2019-03-28T21:50:29.416Z,36.60
2019-03-28T21:52:57.214Z,36.77
2019-03-28T21:55:25.102Z,38.27
2019-03-28T21:57:53.036Z,38.43
2019-03-28T22:00:21.125Z,39.23
2019-03-28T22:02:48.910Z,40.00
2019-03-28T22:05:16.692Z,40.63
2019-03-28T22:07:44.632Z,41.90
2019-03-28T22:10:12.961Z,40.23
2019-03-28T22:12:40.855Z,39.20
2019-03-28T22:15:08.948Z,42.20
2019-03-28T22:17:36.823Z,41.37
2019-03-28T22:20:05.067Z,41.00
2019-03-28T22:22:32.930Z,40.00
2019-03-28T22:25:00.739Z,40.13
2019-03-28T22:27:28.654Z,39.20
2019-03-28T22:29:56.437Z,44.17
2019-03-28T22:32:24.342Z,50.10
2019-03-28T22:34:52.210Z,44.43
2019-03-28T22:37:20.083Z,42.30
2019-03-28T22:39:47.881Z,40.53
2019-03-28T22:42:15.738Z,46.37
2019-03-28T22:44:43.638Z,38.33
2019-03-28T22:47:11.751Z,37.27
2019-03-28T22:49:39.525Z,41.90
2019-03-28T22:52:07.409Z,43.20
2019-03-28T22:54:35.325Z,47.00
2019-03-28T22:57:03.203Z,43.20
2019-03-28T22:59:31.107Z,42.30
2019-03-28T23:01:58.978Z,43.17
2019-03-28T23:04:26.761Z,45.20
2019-03-28T23:06:54.692Z,45.13
2019-03-28T23:09:22.569Z,42.17
2019-03-28T23:11:50.481Z,40.03
2019-03-28T23:14:20.058Z,46.07
2019-03-28T23:16:47.949Z,42.13
2019-03-28T23:19:15.819Z,44.53
2019-03-28T23:21:44.049Z,43.40
2019-03-28T23:24:11.834Z,48.63
2019-03-28T23:26:39.771Z,45.33
2019-03-28T23:29:07.672Z,39.60
2019-03-28T23:31:35.447Z,40.80
2019-03-28T23:34:03.391Z,42.73
2019-03-28T23:36:31.253Z,42.63
2019-03-28T23:38:59.250Z,40.33
2019-03-28T23:41:27.161Z,41.37
2019-03-28T23:43:54.953Z,43.23
2019-03-28T23:46:22.858Z,43.43
2019-03-28T23:48:50.721Z,40.47
2019-03-28T23:51:18.594Z,41.93
2019-03-28T23:53:46.545Z,43.53
2019-03-28T23:56:14.458Z,44.10
2019-03-28T23:58:42.307Z,43.70
